sensor_id;sensor_type;location;lat;lon;timestamp;temperature;humidity
20070;DHT22;10195;50.868;4.382;2024-01-15T00:00:04;3.00;99.90
20070;DHT22;10195;50.868;4.382;2024-01-15T00:02:30;3.00;99.90
20070;DHT22;10195;50.868;4.382;2024-01-15T00:04:56;3.00;99.90
20070;DHT22;10195;50.868;4.382;2024-01-15T00:07:21;3.00;99.90
20070;DHT22;10195;50.868;4.382;2024-01-15T00:09:47;3.10;99.90
20070;DHT22;10195;50.868;4.382;2024-01-15T00:12:13;3.00;99.90
20070;DHT22;10195;50.868;4.382;2024-01-15T00:14:38;3.00;99.90
20070;DHT22;10195;50.868;4.382;2024-01-15T00:17:04;3.00;99.90
20070;DHT22;10195;50.868;4.382;2024-01-15T00:19:30;3.00;99.90
20070;DHT22;10195;50.868;4.382;2024-01-15T00:21:57;3.10;99.90
20070;DHT22;10195;50.868;4.382;2024-01-15T00:24:24;3.00;99.90
20070;DHT22;10195;50.868;4.382;2024-01-15T00:26:50;3.00;99.90
20070;DHT22;10195;50.868;4.382;2024-01-15T00:29:16;3.00;99.90
20070;DHT22;10195;50.868;4.382;2024-01-15T00:31:42;3.10;99.90
20070;DHT22;10195;50.868;4.382;2024-01-15T00:34:08;3.20;99.90
20070;DHT22;10195;50.868;4.382;2024-01-15T00:36:33;3.00;99.90
20070;DHT22;10195;50.868;4.382;2024-01-15T00:38:59;3.00;99.90
20070;DHT22;10195;50.868;4.382;2024-01-15T00:41:25;2.90;99.90
20070;DHT22;10195;50.868;4.382;2024-01-15T00:43:53;2.90;99.90
20070;DHT22;10195;50.868;4.382;2024-01-15T00:46:19;3.00;99.90
20070;DHT22;10195;50.868;4.382;2024-01-15T00:48:44;3.00;99.90
20070;DHT22;10195;50.868;4.382;2024-01-15T00:51:10;3.00;99.90
20070;DHT22;10195;50.868;4.382;2024-01-15T00:53:36;3.10;99.90
20070;DHT22;10195;50.868;4.382;2024-01-15T00:56:02;3.00;99.90
20070;DHT22;10195;50.868;4.382;2024-01-15T00:58:28;3.10;99.90
20070;DHT22;10195;50.868;4.382;2024-01-15T01:00:56;3.10;99.90
20070;DHT22;10195;50.868;4.382;2024-01-15T01:03:22;3.20;99.90
20070;DHT22;10195;50.868;4.382;2024-01-15T01:05:51;3.20;99.90
20070;DHT22;10195;50.868;4.382;2024-01-15T01:08:16;3.20;99.90
20070;DHT22;10195;50.868;4.382;2024-01-15T01:10:42;3.30;99.90
20070;DHT22;10195;50.868;4.382;2024-01-15T01:13:11;3.30;99.90
20070;DHT22;10195;50.868;4.382;2024-01-15T01:15:36;3.30;99.90
20070;DHT22;10195;50.868;4.382;2024-01-15T01:18:05;3.30;99.90
20070;DHT22;10195;50.868;4.382;2024-01-15T01:20:31;3.40;99.90
20070;DHT22;10195;50.868;4.382;2024-01-15T01:22:57;3.50;99.90
20070;DHT22;10195;50.868;4.382;2024-01-15T01:25:22;3.50;99.90
20070;DHT22;10195;50.868;4.382;2024-01-15T01:27:48;3.50;99.90
20070;DHT22;10195;50.868;4.382;2024-01-15T01:30:14;3.50;99.90
20070;DHT22;10195;50.868;4.382;2024-01-15T01:32:39;3.40;99.90
20070;DHT22;10195;50.868;4.382;2024-01-15T01:35:05;3.40;99.90
20070;DHT22;10195;50.868;4.382;2024-01-15T01:37:31;3.40;99.90
20070;DHT22;10195;50.868;4.382;2024-01-15T01:39:57;3.40;99.90
20070;DHT22;10195;50.868;4.382;2024-01-15T01:42:22;3.40;99.90
20070;DHT22;10195;50.868;4.382;2024-01-15T01:44:48;3.50;99.90
20070;DHT22;10195;50.868;4.382;2024-01-15T01:47:14;3.50;99.90
20070;DHT22;10195;50.868;4.382;2024-01-15T01:49:40;3.50;99.90
20070;DHT22;10195;50.868;4.382;2024-01-15T01:52:07;3.50;99.90
20070;DHT22;10195;50.868;4.382;2024-01-15T01:54:33;3.50;99.90
20070;DHT22;10195;50.868;4.382;2024-01-15T01:56:59;3.50;99.90
20070;DHT22;10195;50.868;4.382;2024-01-15T01:59:27;3.50;99.90
20070;DHT22;10195;50.868;4.382;2024-01-15T02:01:54;3.50;99.90
20070;DHT22;10195;50.868;4.382;2024-01-15T02:04:24;3.40;99.90
20070;DHT22;10195;50.868;4.382;2024-01-15T02:06:51;3.40;99.90
20070;DHT22;10195;50.868;4.382;2024-01-15T02:09:20;3.40;99.90
20070;DHT22;10195;50.868;4.382;2024-01-15T02:11:49;3.50;99.90
20070;DHT22;10195;50.868;4.382;2024-01-15T02:14:15;3.60;99.90
20070;DHT22;10195;50.868;4.382;2024-01-15T02:16:41;3.50;99.90
20070;DHT22;10195;50.868;4.382;2024-01-15T02:19:07;3.70;99.90
20070;DHT22;10195;50.868;4.382;2024-01-15T02:21:33;3.70;99.90
20070;DHT22;10195;50.868;4.382;2024-01-15T02:23:58;3.70;99.90
20070;DHT22;10195;50.868;4.382;2024-01-15T02:26:24;3.70;99.90
20070;DHT22;10195;50.868;4.382;2024-01-15T02:28:51;3.80;99.90
20070;DHT22;10195;50.868;4.382;2024-01-15T02:31:17;3.70;99.90
20070;DHT22;10195;50.868;4.382;2024-01-15T02:33:43;3.80;99.90
20070;DHT22;10195;50.868;4.382;2024-01-15T02:36:11;3.60;99.90
20070;DHT22;10195;50.868;4.382;2024-01-15T02:38:37;3.70;99.90
20070;DHT22;10195;50.868;4.382;2024-01-15T02:41:03;3.60;99.90
20070;DHT22;10195;50.868;4.382;2024-01-15T02:43:29;3.60;99.90
20070;DHT22;10195;50.868;4.382;2024-01-15T02:45:55;3.50;99.90
20070;DHT22;10195;50.868;4.382;2024-01-15T02:48:20;3.50;99.90
20070;DHT22;10195;50.868;4.382;2024-01-15T02:50:46;3.60;99.90
20070;DHT22;10195;50.868;4.382;2024-01-15T02:53:12;3.50;99.90
20070;DHT22;10195;50.868;4.382;2024-01-15T02:55:37;3.50;99.90
20070;DHT22;10195;50.868;4.382;2024-01-15T02:58:04;3.50;99.90
20070;DHT22;10195;50.868;4.382;2024-01-15T03:00:29;3.50;99.90
20070;DHT22;10195;50.868;4.382;2024-01-15T03:02:57;3.50;99.90
20070;DHT22;10195;50.868;4.382;2024-01-15T03:05:23;3.50;99.90
20070;DHT22;10195;50.868;4.382;2024-01-15T03:07:49;3.50;99.90
20070;DHT22;10195;50.868;4.382;2024-01-15T03:10:15;3.60;99.90
20070;DHT22;10195;50.868;4.382;2024-01-15T03:12:40;3.60;99.90
20070;DHT22;10195;50.868;4.382;2024-01-15T03:15:06;3.50;99.90
20070;DHT22;10195;50.868;4.382;2024-01-15T03:17:32;3.30;99.90
20070;DHT22;10195;50.868;4.382;2024-01-15T03:19:57;3.30;99.90
20070;DHT22;10195;50.868;4.382;2024-01-15T03:22:23;3.20;99.90
20070;DHT22;10195;50.868;4.382;2024-01-15T03:24:49;3.30;99.90
20070;DHT22;10195;50.868;4.382;2024-01-15T03:27:15;3.40;99.90
20070;DHT22;10195;50.868;4.382;2024-01-15T03:29:41;3.40;99.90
20070;DHT22;10195;50.868;4.382;2024-01-15T03:32:06;3.30;99.90
20070;DHT22;10195;50.868;4.382;2024-01-15T03:34:32;3.30;99.90
20070;DHT22;10195;50.868;4.382;2024-01-15T03:36:58;3.40;99.90
20070;DHT22;10195;50.868;4.382;2024-01-15T03:39:24;3.40;99.90
20070;DHT22;10195;50.868;4.382;2024-01-15T03:41:50;3.30;99.90
20070;DHT22;10195;50.868;4.382;2024-01-15T03:44:16;3.30;99.90
20070;DHT22;10195;50.868;4.382;2024-01-15T03:46:42;3.20;99.90
20070;DHT22;10195;50.868;4.382;2024-01-15T03:49:07;3.10;99.90
20070;DHT22;10195;50.868;4.382;2024-01-15T03:51:33;3.20;99.90
20070;DHT22;10195;50.868;4.382;2024-01-15T03:54:02;3.20;99.90
20070;DHT22;10195;50.868;4.382;2024-01-15T03:56:27;3.20;99.90
20070;DHT22;10195;50.868;4.382;2024-01-15T03:58:53;3.20;99.90
20070;DHT22;10195;50.868;4.382;2024-01-15T04:01:19;3.20;99.90
20070;DHT22;10195;50.868;4.382;2024-01-15T04:03:44;3.20;99.90
20070;DHT22;10195;50.868;4.382;2024-01-15T04:06:10;3.10;99.90
20070;DHT22;10195;50.868;4.382;2024-01-15T04:08:36;3.10;99.90
20070;DHT22;10195;50.868;4.382;2024-01-15T04:11:02;3.10;99.90
20070;DHT22;10195;50.868;4.382;2024-01-15T04:13:27;3.20;99.90
20070;DHT22;10195;50.868;4.382;2024-01-15T04:15:53;3.20;99.90
20070;DHT22;10195;50.868;4.382;2024-01-15T04:18:19;3.10;99.90
20070;DHT22;10195;50.868;4.382;2024-01-15T04:20:44;3.10;99.90
20070;DHT22;10195;50.868;4.382;2024-01-15T04:23:10;3.10;99.90
20070;DHT22;10195;50.868;4.382;2024-01-15T04:25:36;3.20;99.90
20070;DHT22;10195;50.868;4.382;2024-01-15T04:28:01;3.20;99.90
20070;DHT22;10195;50.868;4.382;2024-01-15T04:30:27;3.20;99.90
20070;DHT22;10195;50.868;4.382;2024-01-15T04:32:53;3.20;99.90
20070;DHT22;10195;50.868;4.382;2024-01-15T04:35:18;3.10;99.90
20070;DHT22;10195;50.868;4.382;2024-01-15T04:37:44;3.20;99.90
20070;DHT22;10195;50.868;4.382;2024-01-15T04:40:10;3.10;99.90
20070;DHT22;10195;50.868;4.382;2024-01-15T04:42:36;3.20;99.90
20070;DHT22;10195;50.868;4.382;2024-01-15T04:45:02;3.30;99.90
20070;DHT22;10195;50.868;4.382;2024-01-15T04:47:27;3.20;99.90
20070;DHT22;10195;50.868;4.382;2024-01-15T04:49:53;3.20;99.90
20070;DHT22;10195;50.868;4.382;2024-01-15T04:52:19;3.40;99.90
20070;DHT22;10195;50.868;4.382;2024-01-15T04:54:44;3.40;99.90
20070;DHT22;10195;50.868;4.382;2024-01-15T04:57:10;3.40;99.90
20070;DHT22;10195;50.868;4.382;2024-01-15T04:59:36;3.40;99.90
20070;DHT22;10195;50.868;4.382;2024-01-15T05:02:01;3.50;99.90
20070;DHT22;10195;50.868;4.382;2024-01-15T05:04:27;3.50;99.90
20070;DHT22;10195;50.868;4.382;2024-01-15T05:06:55;3.60;99.90
20070;DHT22;10195;50.868;4.382;2024-01-15T05:09:21;3.60;99.90
20070;DHT22;10195;50.868;4.382;2024-01-15T05:11:46;3.50;99.90
20070;DHT22;10195;50.868;4.382;2024-01-15T05:14:12;3.50;99.90
20070;DHT22;10195;50.868;4.382;2024-01-15T05:16:39;3.50;99.90
20070;DHT22;10195;50.868;4.382;2024-01-15T05:19:04;3.50;99.90
20070;DHT22;10195;50.868;4.382;2024-01-15T05:21:30;3.50;99.90
20070;DHT22;10195;50.868;4.382;2024-01-15T05:23:56;3.30;99.90
20070;DHT22;10195;50.868;4.382;2024-01-15T05:26:21;3.30;99.90
20070;DHT22;10195;50.868;4.382;2024-01-15T05:28:47;3.50;99.90
20070;DHT22;10195;50.868;4.382;2024-01-15T05:31:13;3.40;99.90
20070;DHT22;10195;50.868;4.382;2024-01-15T05:33:39;3.30;99.90
20070;DHT22;10195;50.868;4.382;2024-01-15T05:36:06;3.20;99.90
20070;DHT22;10195;50.868;4.382;2024-01-15T05:38:31;3.10;99.90
20070;DHT22;10195;50.868;4.382;2024-01-15T05:40:57;3.00;99.90
20070;DHT22;10195;50.868;4.382;2024-01-15T05:43:23;3.00;99.90
20070;DHT22;10195;50.868;4.382;2024-01-15T05:45:48;2.90;99.90
20070;DHT22;10195;50.868;4.382;2024-01-15T05:48:14;2.80;99.90
20070;DHT22;10195;50.868;4.382;2024-01-15T05:50:41;2.80;99.90
20070;DHT22;10195;50.868;4.382;2024-01-15T05:53:07;2.90;99.90
20070;DHT22;10195;50.868;4.382;2024-01-15T05:55:32;2.90;99.90
20070;DHT22;10195;50.868;4.382;2024-01-15T05:57:58;2.80;99.90
20070;DHT22;10195;50.868;4.382;2024-01-15T06:00:24;2.80;99.90
20070;DHT22;10195;50.868;4.382;2024-01-15T06:02:49;2.80;99.90
20070;DHT22;10195;50.868;4.382;2024-01-15T06:05:15;2.80;99.90
20070;DHT22;10195;50.868;4.382;2024-01-15T06:07:41;2.80;99.90
20070;DHT22;10195;50.868;4.382;2024-01-15T06:10:07;2.80;99.90
20070;DHT22;10195;50.868;4.382;2024-01-15T06:12:33;2.90;99.90
20070;DHT22;10195;50.868;4.382;2024-01-15T06:14:59;3.00;99.90
20070;DHT22;10195;50.868;4.382;2024-01-15T06:17:25;3.00;99.90
20070;DHT22;10195;50.868;4.382;2024-01-15T06:19:50;3.00;99.90
20070;DHT22;10195;50.868;4.382;2024-01-15T06:22:16;2.90;99.90
20070;DHT22;10195;50.868;4.382;2024-01-15T06:24:42;2.90;99.90
20070;DHT22;10195;50.868;4.382;2024-01-15T06:27:08;2.90;99.90
20070;DHT22;10195;50.868;4.382;2024-01-15T06:29:37;2.80;99.90
20070;DHT22;10195;50.868;4.382;2024-01-15T06:32:03;2.80;99.90
20070;DHT22;10195;50.868;4.382;2024-01-15T06:34:28;2.60;99.90
20070;DHT22;10195;50.868;4.382;2024-01-15T06:36:54;2.60;99.90
20070;DHT22;10195;50.868;4.382;2024-01-15T06:39:20;2.50;99.90
20070;DHT22;10195;50.868;4.382;2024-01-15T06:41:45;2.60;99.90
20070;DHT22;10195;50.868;4.382;2024-01-15T06:44:11;2.50;99.90
20070;DHT22;10195;50.868;4.382;2024-01-15T06:46:42;2.60;99.90
20070;DHT22;10195;50.868;4.382;2024-01-15T06:49:08;2.50;99.90
20070;DHT22;10195;50.868;4.382;2024-01-15T06:51:33;2.50;99.90
20070;DHT22;10195;50.868;4.382;2024-01-15T06:53:59;2.50;99.90
20070;DHT22;10195;50.868;4.382;2024-01-15T06:56:25;2.40;99.90
20070;DHT22;10195;50.868;4.382;2024-01-15T06:58:50;2.50;99.90
20070;DHT22;10195;50.868;4.382;2024-01-15T07:01:16;2.30;99.90
20070;DHT22;10195;50.868;4.382;2024-01-15T07:03:42;2.30;99.90
20070;DHT22;10195;50.868;4.382;2024-01-15T07:06:07;2.30;99.90
20070;DHT22;10195;50.868;4.382;2024-01-15T07:08:33;2.30;99.90
20070;DHT22;10195;50.868;4.382;2024-01-15T07:10:59;2.30;99.90
20070;DHT22;10195;50.868;4.382;2024-01-15T07:13:24;2.30;99.90
20070;DHT22;10195;50.868;4.382;2024-01-15T07:15:50;2.30;99.90
20070;DHT22;10195;50.868;4.382;2024-01-15T07:18:16;2.30;99.90
20070;DHT22;10195;50.868;4.382;2024-01-15T07:20:42;2.30;99.90
20070;DHT22;10195;50.868;4.382;2024-01-15T07:23:07;2.30;99.90
20070;DHT22;10195;50.868;4.382;2024-01-15T07:25:33;2.40;99.90
20070;DHT22;10195;50.868;4.382;2024-01-15T07:27:59;2.40;99.90
20070;DHT22;10195;50.868;4.382;2024-01-15T07:30:25;2.30;99.90
20070;DHT22;10195;50.868;4.382;2024-01-15T07:32:50;2.40;99.90
20070;DHT22;10195;50.868;4.382;2024-01-15T07:35:18;2.40;99.90
20070;DHT22;10195;50.868;4.382;2024-01-15T07:37:44;2.30;99.90
20070;DHT22;10195;50.868;4.382;2024-01-15T07:40:10;2.30;99.90
20070;DHT22;10195;50.868;4.382;2024-01-15T07:42:36;2.30;99.90
20070;DHT22;10195;50.868;4.382;2024-01-15T07:45:02;2.30;99.90
20070;DHT22;10195;50.868;4.382;2024-01-15T07:47:27;2.30;99.90
20070;DHT22;10195;50.868;4.382;2024-01-15T07:49:53;2.30;99.90
20070;DHT22;10195;50.868;4.382;2024-01-15T07:52:20;2.30;99.90
20070;DHT22;10195;50.868;4.382;2024-01-15T07:54:45;2.30;99.90
20070;DHT22;10195;50.868;4.382;2024-01-15T07:57:11;2.40;99.90
20070;DHT22;10195;50.868;4.382;2024-01-15T07:59:37;2.50;99.90
20070;DHT22;10195;50.868;4.382;2024-01-15T08:02:03;2.50;99.90
20070;DHT22;10195;50.868;4.382;2024-01-15T08:04:29;2.50;99.90
20070;DHT22;10195;50.868;4.382;2024-01-15T08:06:55;2.60;99.90
20070;DHT22;10195;50.868;4.382;2024-01-15T08:09:25;2.60;99.90
20070;DHT22;10195;50.868;4.382;2024-01-15T08:11:51;2.80;99.90
20070;DHT22;10195;50.868;4.382;2024-01-15T08:14:17;2.70;99.90
20070;DHT22;10195;50.868;4.382;2024-01-15T08:16:43;2.80;99.90
20070;DHT22;10195;50.868;4.382;2024-01-15T08:19:09;2.80;99.90
20070;DHT22;10195;50.868;4.382;2024-01-15T08:21:35;2.80;99.90
20070;DHT22;10195;50.868;4.382;2024-01-15T08:24:02;2.90;99.90
20070;DHT22;10195;50.868;4.382;2024-01-15T08:26:28;3.00;99.90
20070;DHT22;10195;50.868;4.382;2024-01-15T08:28:54;3.00;99.90
20070;DHT22;10195;50.868;4.382;2024-01-15T08:31:20;3.00;99.90
20070;DHT22;10195;50.868;4.382;2024-01-15T08:33:46;3.00;99.90
20070;DHT22;10195;50.868;4.382;2024-01-15T08:36:12;3.00;99.90
20070;DHT22;10195;50.868;4.382;2024-01-15T08:38:38;3.00;99.90
20070;DHT22;10195;50.868;4.382;2024-01-15T08:41:04;3.10;99.90
20070;DHT22;10195;50.868;4.382;2024-01-15T08:43:30;3.00;99.90
20070;DHT22;10195;50.868;4.382;2024-01-15T08:45:59;3.10;99.90
20070;DHT22;10195;50.868;4.382;2024-01-15T08:48:25;3.10;99.90
20070;DHT22;10195;50.868;4.382;2024-01-15T08:50:54;3.10;99.90
20070;DHT22;10195;50.868;4.382;2024-01-15T08:53:20;3.20;99.90
20070;DHT22;10195;50.868;4.382;2024-01-15T08:55:46;3.20;99.90
20070;DHT22;10195;50.868;4.382;2024-01-15T08:58:11;3.30;99.90
20070;DHT22;10195;50.868;4.382;2024-01-15T09:00:37;3.40;99.90
20070;DHT22;10195;50.868;4.382;2024-01-15T09:03:04;3.30;99.90
20070;DHT22;10195;50.868;4.382;2024-01-15T09:05:30;3.30;99.90
20070;DHT22;10195;50.868;4.382;2024-01-15T09:07:56;3.40;99.90
20070;DHT22;10195;50.868;4.382;2024-01-15T09:10:21;3.60;99.90
20070;DHT22;10195;50.868;4.382;2024-01-15T09:12:47;3.80;99.90
20070;DHT22;10195;50.868;4.382;2024-01-15T09:15:14;4.10;99.90
20070;DHT22;10195;50.868;4.382;2024-01-15T09:17:40;4.30;99.90
20070;DHT22;10195;50.868;4.382;2024-01-15T09:20:07;4.40;99.90
20070;DHT22;10195;50.868;4.382;2024-01-15T09:22:33;4.60;99.90
20070;DHT22;10195;50.868;4.382;2024-01-15T09:24:59;4.90;99.90
20070;DHT22;10195;50.868;4.382;2024-01-15T09:27:27;5.10;99.90
20070;DHT22;10195;50.868;4.382;2024-01-15T09:29:54;5.50;99.90
20070;DHT22;10195;50.868;4.382;2024-01-15T09:32:19;6.00;99.90
20070;DHT22;10195;50.868;4.382;2024-01-15T09:34:48;6.50;99.90
20070;DHT22;10195;50.868;4.382;2024-01-15T09:37:14;6.90;99.90
20070;DHT22;10195;50.868;4.382;2024-01-15T09:39:40;6.90;99.90
20070;DHT22;10195;50.868;4.382;2024-01-15T09:42:07;7.30;99.90
20070;DHT22;10195;50.868;4.382;2024-01-15T09:44:33;7.50;99.90
20070;DHT22;10195;50.868;4.382;2024-01-15T09:47:00;7.60;99.90
20070;DHT22;10195;50.868;4.382;2024-01-15T09:49:26;7.30;99.90
20070;DHT22;10195;50.868;4.382;2024-01-15T09:51:52;7.00;99.90
20070;DHT22;10195;50.868;4.382;2024-01-15T09:54:17;7.20;99.90
20070;DHT22;10195;50.868;4.382;2024-01-15T09:56:47;7.00;99.90
20070;DHT22;10195;50.868;4.382;2024-01-15T09:59:16;7.10;99.90
20070;DHT22;10195;50.868;4.382;2024-01-15T10:01:44;7.20;99.90
20070;DHT22;10195;50.868;4.382;2024-01-15T10:04:11;7.50;99.90
20070;DHT22;10195;50.868;4.382;2024-01-15T10:06:45;7.90;99.90
20070;DHT22;10195;50.868;4.382;2024-01-15T10:09:14;7.40;99.90
20070;DHT22;10195;50.868;4.382;2024-01-15T10:11:44;6.80;99.90
20070;DHT22;10195;50.868;4.382;2024-01-15T10:14:11;6.10;99.90
20070;DHT22;10195;50.868;4.382;2024-01-15T10:16:41;5.40;99.90
20070;DHT22;10195;50.868;4.382;2024-01-15T10:19:10;5.00;99.90
20070;DHT22;10195;50.868;4.382;2024-01-15T10:21:38;4.70;99.90
20070;DHT22;10195;50.868;4.382;2024-01-15T10:24:04;4.80;99.90
20070;DHT22;10195;50.868;4.382;2024-01-15T10:26:31;5.20;99.90
20070;DHT22;10195;50.868;4.382;2024-01-15T10:28:58;5.60;99.90
20070;DHT22;10195;50.868;4.382;2024-01-15T10:31:25;5.60;99.90
20070;DHT22;10195;50.868;4.382;2024-01-15T10:33:51;5.50;99.90
20070;DHT22;10195;50.868;4.382;2024-01-15T10:36:18;5.40;99.90
20070;DHT22;10195;50.868;4.382;2024-01-15T10:38:44;5.40;99.90
20070;DHT22;10195;50.868;4.382;2024-01-15T10:41:10;5.30;99.90
20070;DHT22;10195;50.868;4.382;2024-01-15T10:43:36;5.40;99.90
20070;DHT22;10195;50.868;4.382;2024-01-15T10:46:02;6.20;99.90
20070;DHT22;10195;50.868;4.382;2024-01-15T10:48:28;6.50;99.90
20070;DHT22;10195;50.868;4.382;2024-01-15T10:50:59;6.20;99.90
20070;DHT22;10195;50.868;4.382;2024-01-15T10:53:25;6.20;99.90
20070;DHT22;10195;50.868;4.382;2024-01-15T10:55:51;6.30;99.90
20070;DHT22;10195;50.868;4.382;2024-01-15T10:58:20;6.50;99.90
20070;DHT22;10195;50.868;4.382;2024-01-15T11:00:47;6.40;99.90
20070;DHT22;10195;50.868;4.382;2024-01-15T11:03:13;6.40;99.90
20070;DHT22;10195;50.868;4.382;2024-01-15T11:05:42;6.70;99.90
20070;DHT22;10195;50.868;4.382;2024-01-15T11:08:09;7.20;99.90
20070;DHT22;10195;50.868;4.382;2024-01-15T11:10:49;7.10;99.90
20070;DHT22;10195;50.868;4.382;2024-01-15T11:13:20;6.80;99.90
20070;DHT22;10195;50.868;4.382;2024-01-15T11:16:02;6.60;99.90
20070;DHT22;10195;50.868;4.382;2024-01-15T11:18:36;6.20;99.90
20070;DHT22;10195;50.868;4.382;2024-01-15T11:29:05;4.70;99.90
20070;DHT22;10195;50.868;4.382;2024-01-15T11:34:08;4.60;99.90
20070;DHT22;10195;50.868;4.382;2024-01-15T11:41:58;5.10;99.90
20070;DHT22;10195;50.868;4.382;2024-01-15T11:44:23;5.10;99.90
20070;DHT22;10195;50.868;4.382;2024-01-15T11:50:00;5.10;99.90
20070;DHT22;10195;50.868;4.382;2024-01-15T11:52:34;5.30;99.90
20070;DHT22;10195;50.868;4.382;2024-01-15T11:55:14;5.40;99.90
20070;DHT22;10195;50.868;4.382;2024-01-15T11:57:50;5.40;99.90
20070;DHT22;10195;50.868;4.382;2024-01-15T12:00:17;5.20;99.90
20070;DHT22;10195;50.868;4.382;2024-01-15T12:02:44;5.00;99.90
20070;DHT22;10195;50.868;4.382;2024-01-15T12:05:12;4.90;99.90
20070;DHT22;10195;50.868;4.382;2024-01-15T12:07:43;4.80;99.90
20070;DHT22;10195;50.868;4.382;2024-01-15T12:10:13;4.80;99.90
20070;DHT22;10195;50.868;4.382;2024-01-15T12:13:02;4.70;99.90
20070;DHT22;10195;50.868;4.382;2024-01-15T12:15:31;4.60;99.90
20070;DHT22;10195;50.868;4.382;2024-01-15T12:17:58;4.70;99.90
20070;DHT22;10195;50.868;4.382;2024-01-15T12:20:27;4.60;99.90
20070;DHT22;10195;50.868;4.382;2024-01-15T12:22:53;4.50;99.90
20070;DHT22;10195;50.868;4.382;2024-01-15T12:25:21;4.50;99.90
20070;DHT22;10195;50.868;4.382;2024-01-15T12:27:47;4.60;99.90
20070;DHT22;10195;50.868;4.382;2024-01-15T12:30:13;4.70;99.90
20070;DHT22;10195;50.868;4.382;2024-01-15T12:32:42;4.80;99.90
20070;DHT22;10195;50.868;4.382;2024-01-15T12:35:11;4.90;99.90
20070;DHT22;10195;50.868;4.382;2024-01-15T12:37:39;4.90;99.90
20070;DHT22;10195;50.868;4.382;2024-01-15T12:40:06;4.80;99.90
20070;DHT22;10195;50.868;4.382;2024-01-15T12:42:34;4.70;99.90
20070;DHT22;10195;50.868;4.382;2024-01-15T12:45:00;4.60;99.90
20070;DHT22;10195;50.868;4.382;2024-01-15T12:47:30;4.40;99.90
20070;DHT22;10195;50.868;4.382;2024-01-15T12:49:57;4.10;99.90
20070;DHT22;10195;50.868;4.382;2024-01-15T12:52:27;4.10;99.90
20070;DHT22;10195;50.868;4.382;2024-01-15T12:54:52;4.20;99.90
20070;DHT22;10195;50.868;4.382;2024-01-15T12:57:18;4.10;99.90
20070;DHT22;10195;50.868;4.382;2024-01-15T12:59:45;4.10;99.90
20070;DHT22;10195;50.868;4.382;2024-01-15T13:02:13;4.20;99.90
20070;DHT22;10195;50.868;4.382;2024-01-15T13:04:39;4.20;99.90
20070;DHT22;10195;50.868;4.382;2024-01-15T13:07:06;4.30;99.90
20070;DHT22;10195;50.868;4.382;2024-01-15T13:09:33;4.40;99.90
20070;DHT22;10195;50.868;4.382;2024-01-15T13:11:59;4.50;99.90
20070;DHT22;10195;50.868;4.382;2024-01-15T13:14:25;4.50;99.90
20070;DHT22;10195;50.868;4.382;2024-01-15T13:16:51;4.40;99.90
20070;DHT22;10195;50.868;4.382;2024-01-15T13:19:17;4.30;99.90
20070;DHT22;10195;50.868;4.382;2024-01-15T13:21:44;4.40;99.90
20070;DHT22;10195;50.868;4.382;2024-01-15T13:24:10;4.50;99.90
20070;DHT22;10195;50.868;4.382;2024-01-15T13:26:36;4.50;99.90
20070;DHT22;10195;50.868;4.382;2024-01-15T13:29:03;4.40;99.90
20070;DHT22;10195;50.868;4.382;2024-01-15T13:31:32;4.50;99.90
20070;DHT22;10195;50.868;4.382;2024-01-15T13:33:59;4.50;99.90
20070;DHT22;10195;50.868;4.382;2024-01-15T13:36:28;4.60;99.90
20070;DHT22;10195;50.868;4.382;2024-01-15T13:38:54;4.60;99.90
20070;DHT22;10195;50.868;4.382;2024-01-15T13:41:20;4.60;99.90
20070;DHT22;10195;50.868;4.382;2024-01-15T13:43:54;4.60;99.90
20070;DHT22;10195;50.868;4.382;2024-01-15T13:46:20;4.60;99.90
20070;DHT22;10195;50.868;4.382;2024-01-15T13:48:47;4.70;99.90
20070;DHT22;10195;50.868;4.382;2024-01-15T13:51:13;4.70;99.90
20070;DHT22;10195;50.868;4.382;2024-01-15T13:53:39;4.60;99.90
20070;DHT22;10195;50.868;4.382;2024-01-15T13:56:06;4.70;99.90
20070;DHT22;10195;50.868;4.382;2024-01-15T13:58:32;4.80;99.90
20070;DHT22;10195;50.868;4.382;2024-01-15T14:01:00;4.40;99.90
20070;DHT22;10195;50.868;4.382;2024-01-15T14:03:26;3.90;99.90
20070;DHT22;10195;50.868;4.382;2024-01-15T14:05:52;3.20;99.90
20070;DHT22;10195;50.868;4.382;2024-01-15T14:08:18;3.00;99.90
20070;DHT22;10195;50.868;4.382;2024-01-15T14:10:44;3.00;99.90
20070;DHT22;10195;50.868;4.382;2024-01-15T14:13:10;3.10;99.90
20070;DHT22;10195;50.868;4.382;2024-01-15T14:15:36;3.30;99.90
20070;DHT22;10195;50.868;4.382;2024-01-15T14:18:02;3.30;99.90
20070;DHT22;10195;50.868;4.382;2024-01-15T14:20:28;3.30;99.90
20070;DHT22;10195;50.868;4.382;2024-01-15T14:22:54;3.50;99.90
20070;DHT22;10195;50.868;4.382;2024-01-15T14:25:23;3.60;99.90
20070;DHT22;10195;50.868;4.382;2024-01-15T14:27:50;3.90;99.90
20070;DHT22;10195;50.868;4.382;2024-01-15T14:30:16;4.00;99.90
20070;DHT22;10195;50.868;4.382;2024-01-15T14:32:45;4.10;99.90
20070;DHT22;10195;50.868;4.382;2024-01-15T14:35:11;4.00;99.90
20070;DHT22;10195;50.868;4.382;2024-01-15T14:37:37;3.70;99.90
20070;DHT22;10195;50.868;4.382;2024-01-15T14:40:04;3.30;99.90
20070;DHT22;10195;50.868;4.382;2024-01-15T14:42:30;3.20;99.90
20070;DHT22;10195;50.868;4.382;2024-01-15T14:44:56;3.10;99.90
20070;DHT22;10195;50.868;4.382;2024-01-15T14:47:22;3.00;99.90
20070;DHT22;10195;50.868;4.382;2024-01-15T14:49:49;3.00;99.90
20070;DHT22;10195;50.868;4.382;2024-01-15T14:52:15;3.10;99.90
20070;DHT22;10195;50.868;4.382;2024-01-15T14:54:41;3.00;99.90
20070;DHT22;10195;50.868;4.382;2024-01-15T14:57:07;2.90;99.90
20070;DHT22;10195;50.868;4.382;2024-01-15T14:59:33;2.90;99.90
20070;DHT22;10195;50.868;4.382;2024-01-15T15:01:58;2.90;99.90
20070;DHT22;10195;50.868;4.382;2024-01-15T15:04:24;2.80;99.90
20070;DHT22;10195;50.868;4.382;2024-01-15T15:06:50;2.90;99.90
20070;DHT22;10195;50.868;4.382;2024-01-15T15:09:15;2.90;99.90
20070;DHT22;10195;50.868;4.382;2024-01-15T15:11:41;3.00;99.90
20070;DHT22;10195;50.868;4.382;2024-01-15T15:14:07;2.90;99.90
20070;DHT22;10195;50.868;4.382;2024-01-15T15:16:33;2.90;99.90
20070;DHT22;10195;50.868;4.382;2024-01-15T15:18:58;2.90;99.90
20070;DHT22;10195;50.868;4.382;2024-01-15T15:21:24;2.80;99.90
20070;DHT22;10195;50.868;4.382;2024-01-15T15:23:50;2.80;99.90
20070;DHT22;10195;50.868;4.382;2024-01-15T15:26:16;2.80;99.90
20070;DHT22;10195;50.868;4.382;2024-01-15T15:28:41;2.90;99.90
20070;DHT22;10195;50.868;4.382;2024-01-15T15:31:07;2.80;99.90
20070;DHT22;10195;50.868;4.382;2024-01-15T15:33:34;2.80;99.90
20070;DHT22;10195;50.868;4.382;2024-01-15T15:36:00;2.80;99.90
20070;DHT22;10195;50.868;4.382;2024-01-15T15:38:30;2.80;99.90
20070;DHT22;10195;50.868;4.382;2024-01-15T15:40:56;2.80;99.90
20070;DHT22;10195;50.868;4.382;2024-01-15T15:43:22;2.80;99.90
20070;DHT22;10195;50.868;4.382;2024-01-15T15:45:47;2.80;99.90
20070;DHT22;10195;50.868;4.382;2024-01-15T15:48:16;2.80;99.90
20070;DHT22;10195;50.868;4.382;2024-01-15T15:50:42;2.80;99.90
20070;DHT22;10195;50.868;4.382;2024-01-15T15:53:07;2.80;99.90
20070;DHT22;10195;50.868;4.382;2024-01-15T15:55:33;2.80;99.90
20070;DHT22;10195;50.868;4.382;2024-01-15T15:58:02;2.80;99.90